sensor_id;sensor_type;location;lat;lon;timestamp;pressure;altitude;pressure_sealevel;temperature
69590;BMP180;56792;50.644;17.984;2022-09-17T00:00:12;98638.60;;;8.26
69590;BMP180;56792;50.644;17.984;2022-09-17T00:02:41;98638.80;;;8.28
69590;BMP180;56792;50.644;17.984;2022-09-17T00:05:12;98641.40;;;8.28
69590;BMP180;56792;50.644;17.984;2022-09-17T00:07:41;98641.20;;;8.30
69590;BMP180;56792;50.644;17.984;2022-09-17T00:10:11;98643.40;;;8.30
69590;BMP180;56792;50.644;17.984;2022-09-17T00:12:40;98637.60;;;8.30
69590;BMP180;56792;50.644;17.984;2022-09-17T00:15:11;98640.00;;;8.30
69590;BMP180;56792;50.644;17.984;2022-09-17T00:17:40;98643.40;;;8.30
69590;BMP180;56792;50.644;17.984;2022-09-17T00:20:10;98639.80;;;8.28
69590;BMP180;56792;50.644;17.984;2022-09-17T00:22:40;98641.00;;;8.30
69590;BMP180;56792;50.644;17.984;2022-09-17T00:25:09;98639.00;;;8.24
69590;BMP180;56792;50.644;17.984;2022-09-17T00:27:38;98641.20;;;8.20
69590;BMP180;56792;50.644;17.984;2022-09-17T00:30:12;98638.20;;;8.20
69590;BMP180;56792;50.644;17.984;2022-09-17T00:32:41;98644.80;;;8.20
69590;BMP180;56792;50.644;17.984;2022-09-17T00:35:10;98644.00;;;8.20
69590;BMP180;56792;50.644;17.984;2022-09-17T00:37:39;98643.20;;;8.18
69590;BMP180;56792;50.644;17.984;2022-09-17T00:40:11;98644.60;;;8.12
69590;BMP180;56792;50.644;17.984;2022-09-17T00:42:40;98639.60;;;8.10
69590;BMP180;56792;50.644;17.984;2022-09-17T00:45:11;98635.40;;;8.10
69590;BMP180;56792;50.644;17.984;2022-09-17T00:47:46;98637.40;;;8.10
69590;BMP180;56792;50.644;17.984;2022-09-17T00:50:22;98635.60;;;8.10
69590;BMP180;56792;50.644;17.984;2022-09-17T00:52:57;98637.00;;;8.00
69590;BMP180;56792;50.644;17.984;2022-09-17T00:55:32;98636.40;;;8.04
69590;BMP180;56792;50.644;17.984;2022-09-17T00:58:06;98634.20;;;8.00
69590;BMP180;56792;50.644;17.984;2022-09-17T01:00:36;98626.00;;;8.00
69590;BMP180;56792;50.644;17.984;2022-09-17T01:03:05;98631.20;;;8.00
69590;BMP180;56792;50.644;17.984;2022-09-17T01:05:41;98629.20;;;8.02
69590;BMP180;56792;50.644;17.984;2022-09-17T01:08:26;98624.60;;;8.06
69590;BMP180;56792;50.644;17.984;2022-09-17T01:11:32;98626.20;;;8.10
69590;BMP180;56792;50.644;17.984;2022-09-17T01:14:27;98629.40;;;8.10
69590;BMP180;56792;50.644;17.984;2022-09-17T01:17:10;98627.00;;;8.10
69590;BMP180;56792;50.644;17.984;2022-09-17T01:23:30;98618.40;;;8.20
69590;BMP180;56792;50.644;17.984;2022-09-17T01:26:42;98615.00;;;8.20
69590;BMP180;56792;50.644;17.984;2022-09-17T01:29:32;98617.20;;;8.20
69590;BMP180;56792;50.644;17.984;2022-09-17T01:32:13;98618.20;;;8.20
69590;BMP180;56792;50.644;17.984;2022-09-17T01:34:54;98619.60;;;8.20
69590;BMP180;56792;50.644;17.984;2022-09-17T01:37:33;98617.60;;;8.20
69590;BMP180;56792;50.644;17.984;2022-09-17T01:40:14;98615.60;;;8.14
69590;BMP180;56792;50.644;17.984;2022-09-17T01:42:54;98614.40;;;8.10
69590;BMP180;56792;50.644;17.984;2022-09-17T01:45:33;98609.20;;;8.10
69590;BMP180;56792;50.644;17.984;2022-09-17T01:48:10;98610.00;;;8.10
69590;BMP180;56792;50.644;17.984;2022-09-17T01:50:46;98607.60;;;8.08
69590;BMP180;56792;50.644;17.984;2022-09-17T01:53:21;98601.80;;;8.00
69590;BMP180;56792;50.644;17.984;2022-09-17T01:55:55;98601.60;;;8.00
69590;BMP180;56792;50.644;17.984;2022-09-17T01:58:32;98606.80;;;8.00
69590;BMP180;56792;50.644;17.984;2022-09-17T02:04:47;98602.00;;;7.96
69590;BMP180;56792;50.644;17.984;2022-09-17T02:07:22;98596.00;;;7.90
69590;BMP180;56792;50.644;17.984;2022-09-17T02:10:01;98594.40;;;7.90
69590;BMP180;56792;50.644;17.984;2022-09-17T02:12:36;98595.40;;;7.90
69590;BMP180;56792;50.644;17.984;2022-09-17T02:15:12;98597.40;;;7.88
69590;BMP180;56792;50.644;17.984;2022-09-17T02:17:50;98593.40;;;7.80
69590;BMP180;56792;50.644;17.984;2022-09-17T02:20:34;98586.80;;;7.80
69590;BMP180;56792;50.644;17.984;2022-09-17T02:23:13;98588.60;;;7.80
69590;BMP180;56792;50.644;17.984;2022-09-17T02:25:51;98588.00;;;7.70
69590;BMP180;56792;50.644;17.984;2022-09-17T02:28:35;98596.00;;;7.70
69590;BMP180;56792;50.644;17.984;2022-09-17T02:31:06;98594.00;;;7.64
69590;BMP180;56792;50.644;17.984;2022-09-17T02:33:36;98597.20;;;7.60
69590;BMP180;56792;50.644;17.984;2022-09-17T02:36:08;98596.40;;;7.60
69590;BMP180;56792;50.644;17.984;2022-09-17T02:38:42;98598.40;;;7.60
69590;BMP180;56792;50.644;17.984;2022-09-17T02:41:17;98594.20;;;7.60
69590;BMP180;56792;50.644;17.984;2022-09-17T02:43:57;98585.00;;;7.60
69590;BMP180;56792;50.644;17.984;2022-09-17T02:46:54;98584.20;;;7.60
69590;BMP180;56792;50.644;17.984;2022-09-17T02:49:49;98581.40;;;7.60
69590;BMP180;56792;50.644;17.984;2022-09-17T02:52:33;98582.60;;;7.54
69590;BMP180;56792;50.644;17.984;2022-09-17T02:55:17;98584.40;;;7.50
69590;BMP180;56792;50.644;17.984;2022-09-17T02:57:52;98585.40;;;7.50
69590;BMP180;56792;50.644;17.984;2022-09-17T03:00:24;98587.00;;;7.50
69590;BMP180;56792;50.644;17.984;2022-09-17T03:02:59;98592.60;;;7.50
69590;BMP180;56792;50.644;17.984;2022-09-17T03:05:30;98588.40;;;7.40
69590;BMP180;56792;50.644;17.984;2022-09-17T03:08:01;98594.00;;;7.40
69590;BMP180;56792;50.644;17.984;2022-09-17T03:10:30;98592.80;;;7.40
69590;BMP180;56792;50.644;17.984;2022-09-17T03:13:01;98597.60;;;7.40
69590;BMP180;56792;50.644;17.984;2022-09-17T03:15:30;98592.20;;;7.40
69590;BMP180;56792;50.644;17.984;2022-09-17T03:17:59;98589.40;;;7.40
69590;BMP180;56792;50.644;17.984;2022-09-17T03:20:28;98586.80;;;7.40
69590;BMP180;56792;50.644;17.984;2022-09-17T03:22:57;98586.60;;;7.40
69590;BMP180;56792;50.644;17.984;2022-09-17T03:25:26;98586.00;;;7.40
69590;BMP180;56792;50.644;17.984;2022-09-17T03:27:58;98591.40;;;7.40
69590;BMP180;56792;50.644;17.984;2022-09-17T03:30:27;98585.40;;;7.40
69590;BMP180;56792;50.644;17.984;2022-09-17T03:32:56;98587.80;;;7.40
69590;BMP180;56792;50.644;17.984;2022-09-17T03:35:25;98590.40;;;7.40
69590;BMP180;56792;50.644;17.984;2022-09-17T03:37:54;98586.00;;;7.38
69590;BMP180;56792;50.644;17.984;2022-09-17T03:40:24;98586.20;;;7.34
69590;BMP180;56792;50.644;17.984;2022-09-17T03:42:53;98583.80;;;7.30
69590;BMP180;56792;50.644;17.984;2022-09-17T03:45:22;98583.20;;;7.30
69590;BMP180;56792;50.644;17.984;2022-09-17T03:47:51;98580.40;;;7.30
69590;BMP180;56792;50.644;17.984;2022-09-17T03:50:20;98583.40;;;7.30
69590;BMP180;56792;50.644;17.984;2022-09-17T03:52:49;98584.20;;;7.30
69590;BMP180;56792;50.644;17.984;2022-09-17T03:55:18;98577.40;;;7.26
69590;BMP180;56792;50.644;17.984;2022-09-17T03:57:47;98581.40;;;7.20
69590;BMP180;56792;50.644;17.984;2022-09-17T04:00:17;98581.40;;;7.20
69590;BMP180;56792;50.644;17.984;2022-09-17T04:02:46;98578.20;;;7.20
69590;BMP180;56792;50.644;17.984;2022-09-17T04:05:16;98583.20;;;7.20
69590;BMP180;56792;50.644;17.984;2022-09-17T04:07:45;98587.60;;;7.10
69590;BMP180;56792;50.644;17.984;2022-09-17T04:10:14;98579.60;;;7.10
69590;BMP180;56792;50.644;17.984;2022-09-17T04:12:44;98582.20;;;7.06
69590;BMP180;56792;50.644;17.984;2022-09-17T04:15:13;98582.80;;;7.00
69590;BMP180;56792;50.644;17.984;2022-09-17T04:17:42;98583.40;;;7.00
69590;BMP180;56792;50.644;17.984;2022-09-17T04:20:11;98582.00;;;7.00
69590;BMP180;56792;50.644;17.984;2022-09-17T04:22:41;98587.40;;;7.00
69590;BMP180;56792;50.644;17.984;2022-09-17T04:25:10;98579.60;;;7.00
69590;BMP180;56792;50.644;17.984;2022-09-17T04:27:39;98581.40;;;7.00
69590;BMP180;56792;50.644;17.984;2022-09-17T04:30:11;98574.40;;;7.00
69590;BMP180;56792;50.644;17.984;2022-09-17T04:32:43;98578.80;;;7.00
69590;BMP180;56792;50.644;17.984;2022-09-17T04:35:13;98576.00;;;7.00
69590;BMP180;56792;50.644;17.984;2022-09-17T04:37:42;98570.20;;;7.00
69590;BMP180;56792;50.644;17.984;2022-09-17T04:40:12;98575.60;;;7.00
69590;BMP180;56792;50.644;17.984;2022-09-17T04:42:41;98564.20;;;7.00
69590;BMP180;56792;50.644;17.984;2022-09-17T04:45:11;98556.40;;;7.04
69590;BMP180;56792;50.644;17.984;2022-09-17T04:47:41;98559.40;;;7.10
69590;BMP180;56792;50.644;17.984;2022-09-17T04:50:10;98562.40;;;7.10
69590;BMP180;56792;50.644;17.984;2022-09-17T04:52:43;98561.60;;;7.10
69590;BMP180;56792;50.644;17.984;2022-09-17T04:55:14;98562.40;;;7.16
69590;BMP180;56792;50.644;17.984;2022-09-17T04:57:48;98560.00;;;7.20
69590;BMP180;56792;50.644;17.984;2022-09-17T05:00:21;98557.00;;;7.20
69590;BMP180;56792;50.644;17.984;2022-09-17T05:02:53;98554.40;;;7.20
69590;BMP180;56792;50.644;17.984;2022-09-17T05:05:24;98551.80;;;7.20
69590;BMP180;56792;50.644;17.984;2022-09-17T05:07:53;98560.20;;;7.24
69590;BMP180;56792;50.644;17.984;2022-09-17T05:10:23;98571.80;;;7.30
69590;BMP180;56792;50.644;17.984;2022-09-17T05:12:54;98573.00;;;7.36
69590;BMP180;56792;50.644;17.984;2022-09-17T05:15:25;98575.20;;;7.42
69590;BMP180;56792;50.644;17.984;2022-09-17T05:17:55;98570.00;;;7.60
69590;BMP180;56792;50.644;17.984;2022-09-17T05:20:24;98581.80;;;7.70
69590;BMP180;56792;50.644;17.984;2022-09-17T05:22:53;98594.60;;;7.80
69590;BMP180;56792;50.644;17.984;2022-09-17T05:25:23;98595.80;;;7.90
69590;BMP180;56792;50.644;17.984;2022-09-17T05:27:54;98599.20;;;8.00
69590;BMP180;56792;50.644;17.984;2022-09-17T05:30:23;98600.80;;;8.10
69590;BMP180;56792;50.644;17.984;2022-09-17T05:33:00;98601.20;;;8.20
69590;BMP180;56792;50.644;17.984;2022-09-17T05:35:33;98600.80;;;8.30
69590;BMP180;56792;50.644;17.984;2022-09-17T05:38:05;98595.80;;;8.40
69590;BMP180;56792;50.644;17.984;2022-09-17T05:40:37;98595.20;;;8.54
69590;BMP180;56792;50.644;17.984;2022-09-17T05:43:08;98597.00;;;8.70
69590;BMP180;56792;50.644;17.984;2022-09-17T05:45:38;98592.00;;;8.78
69590;BMP180;56792;50.644;17.984;2022-09-17T05:48:11;98603.00;;;8.90
69590;BMP180;56792;50.644;17.984;2022-09-17T05:50:42;98609.20;;;9.00
69590;BMP180;56792;50.644;17.984;2022-09-17T05:53:13;98612.20;;;9.02
69590;BMP180;56792;50.644;17.984;2022-09-17T05:55:42;98600.40;;;9.10
69590;BMP180;56792;50.644;17.984;2022-09-17T05:58:14;98603.20;;;9.20
69590;BMP180;56792;50.644;17.984;2022-09-17T06:00:44;98593.00;;;9.28
69590;BMP180;56792;50.644;17.984;2022-09-17T06:03:17;98596.80;;;9.30
69590;BMP180;56792;50.644;17.984;2022-09-17T06:05:55;98591.00;;;9.36
69590;BMP180;56792;50.644;17.984;2022-09-17T06:08:27;98600.20;;;9.40
69590;BMP180;56792;50.644;17.984;2022-09-17T06:10:57;98601.80;;;9.40
69590;BMP180;56792;50.644;17.984;2022-09-17T06:13:27;98600.80;;;9.50
69590;BMP180;56792;50.644;17.984;2022-09-17T06:15:56;98596.60;;;9.50
69590;BMP180;56792;50.644;17.984;2022-09-17T06:18:27;98594.00;;;9.52
69590;BMP180;56792;50.644;17.984;2022-09-17T06:20:57;98595.40;;;9.56
69590;BMP180;56792;50.644;17.984;2022-09-17T06:23:29;98596.60;;;9.60
69590;BMP180;56792;50.644;17.984;2022-09-17T06:26:04;98590.60;;;9.60
69590;BMP180;56792;50.644;17.984;2022-09-17T06:28:34;98583.60;;;9.60
69590;BMP180;56792;50.644;17.984;2022-09-17T06:31:05;98588.80;;;9.70
69590;BMP180;56792;50.644;17.984;2022-09-17T06:33:35;98587.20;;;9.70
69590;BMP180;56792;50.644;17.984;2022-09-17T06:36:08;98591.60;;;9.80
69590;BMP180;56792;50.644;17.984;2022-09-17T06:38:38;98593.00;;;9.90
69590;BMP180;56792;50.644;17.984;2022-09-17T06:41:08;98594.40;;;10.00
69590;BMP180;56792;50.644;17.984;2022-09-17T06:43:37;98594.20;;;10.10
69590;BMP180;56792;50.644;17.984;2022-09-17T06:46:08;98597.80;;;10.20
69590;BMP180;56792;50.644;17.984;2022-09-17T06:48:39;98602.20;;;10.20
69590;BMP180;56792;50.644;17.984;2022-09-17T06:51:10;98610.80;;;10.22
69590;BMP180;56792;50.644;17.984;2022-09-17T06:53:40;98615.00;;;10.30
69590;BMP180;56792;50.644;17.984;2022-09-17T06:56:10;98620.00;;;10.30
69590;BMP180;56792;50.644;17.984;2022-09-17T06:58:40;98623.40;;;10.40
69590;BMP180;56792;50.644;17.984;2022-09-17T07:01:12;98628.80;;;10.40
69590;BMP180;56792;50.644;17.984;2022-09-17T07:03:43;98629.20;;;10.50
69590;BMP180;56792;50.644;17.984;2022-09-17T07:06:12;98623.40;;;10.60
69590;BMP180;56792;50.644;17.984;2022-09-17T07:08:42;98618.80;;;10.62
69590;BMP180;56792;50.644;17.984;2022-09-17T07:11:12;98612.80;;;10.80
69590;BMP180;56792;50.644;17.984;2022-09-17T07:13:43;98609.00;;;10.90
69590;BMP180;56792;50.644;17.984;2022-09-17T07:16:12;98603.40;;;11.00
69590;BMP180;56792;50.644;17.984;2022-09-17T07:18:41;98607.20;;;11.00
69590;BMP180;56792;50.644;17.984;2022-09-17T07:21:11;98610.00;;;11.10
69590;BMP180;56792;50.644;17.984;2022-09-17T07:23:41;98615.60;;;11.20
69590;BMP180;56792;50.644;17.984;2022-09-17T07:26:15;98623.80;;;11.20
69590;BMP180;56792;50.644;17.984;2022-09-17T07:28:45;98624.20;;;11.24
69590;BMP180;56792;50.644;17.984;2022-09-17T07:31:14;98627.40;;;11.30
69590;BMP180;56792;50.644;17.984;2022-09-17T07:33:44;98626.60;;;11.30
69590;BMP180;56792;50.644;17.984;2022-09-17T07:36:16;98627.40;;;11.50
69590;BMP180;56792;50.644;17.984;2022-09-17T07:38:46;98625.40;;;11.60
69590;BMP180;56792;50.644;17.984;2022-09-17T07:41:17;98623.40;;;11.60
69590;BMP180;56792;50.644;17.984;2022-09-17T07:43:46;98621.60;;;11.70
69590;BMP180;56792;50.644;17.984;2022-09-17T07:46:17;98632.40;;;11.86
69590;BMP180;56792;50.644;17.984;2022-09-17T07:48:47;98629.20;;;11.90
69590;BMP180;56792;50.644;17.984;2022-09-17T07:51:19;98633.80;;;11.82
69590;BMP180;56792;50.644;17.984;2022-09-17T07:53:51;98635.20;;;11.88
69590;BMP180;56792;50.644;17.984;2022-09-17T07:56:22;98635.00;;;11.90
69590;BMP180;56792;50.644;17.984;2022-09-17T07:58:52;98628.20;;;11.88
69590;BMP180;56792;50.644;17.984;2022-09-17T08:01:23;98632.00;;;11.90
69590;BMP180;56792;50.644;17.984;2022-09-17T08:03:54;98635.60;;;11.90
69590;BMP180;56792;50.644;17.984;2022-09-17T08:06:25;98632.40;;;12.00
69590;BMP180;56792;50.644;17.984;2022-09-17T08:08:57;98640.60;;;12.20
69590;BMP180;56792;50.644;17.984;2022-09-17T08:11:29;98644.20;;;12.40
69590;BMP180;56792;50.644;17.984;2022-09-17T08:13:59;98639.80;;;12.66
69590;BMP180;56792;50.644;17.984;2022-09-17T08:16:30;98642.20;;;12.90
69590;BMP180;56792;50.644;17.984;2022-09-17T08:18:59;98636.20;;;13.00
69590;BMP180;56792;50.644;17.984;2022-09-17T08:21:28;98646.20;;;13.00
69590;BMP180;56792;50.644;17.984;2022-09-17T08:23:58;98644.60;;;13.00
69590;BMP180;56792;50.644;17.984;2022-09-17T08:26:27;98635.00;;;13.00
69590;BMP180;56792;50.644;17.984;2022-09-17T08:28:57;98638.40;;;13.00
69590;BMP180;56792;50.644;17.984;2022-09-17T08:31:27;98643.00;;;13.00
69590;BMP180;56792;50.644;17.984;2022-09-17T08:33:58;98655.20;;;13.10
69590;BMP180;56792;50.644;17.984;2022-09-17T08:36:27;98649.40;;;13.10
69590;BMP180;56792;50.644;17.984;2022-09-17T08:38:57;98641.60;;;13.10
69590;BMP180;56792;50.644;17.984;2022-09-17T08:41:44;98643.60;;;13.10
69590;BMP180;56792;50.644;17.984;2022-09-17T08:44:32;98639.20;;;13.10
69590;BMP180;56792;50.644;17.984;2022-09-17T08:47:17;98623.60;;;13.10
69590;BMP180;56792;50.644;17.984;2022-09-17T08:49:55;98618.00;;;13.10
69590;BMP180;56792;50.644;17.984;2022-09-17T08:52:55;98613.60;;;13.00
69590;BMP180;56792;50.644;17.984;2022-09-17T08:55:43;98608.80;;;12.90
69590;BMP180;56792;50.644;17.984;2022-09-17T08:58:42;98612.40;;;12.90
69590;BMP180;56792;50.644;17.984;2022-09-17T09:01:33;98625.60;;;12.90
69590;BMP180;56792;50.644;17.984;2022-09-17T09:04:50;98635.80;;;12.90
69590;BMP180;56792;50.644;17.984;2022-09-17T09:07:26;98652.80;;;13.00
69590;BMP180;56792;50.644;17.984;2022-09-17T09:10:09;98660.80;;;12.98
69590;BMP180;56792;50.644;17.984;2022-09-17T09:12:42;98668.40;;;12.90
69590;BMP180;56792;50.644;17.984;2022-09-17T09:15:36;98673.40;;;12.92
69590;BMP180;56792;50.644;17.984;2022-09-17T09:18:19;98671.80;;;13.00
69590;BMP180;56792;50.644;17.984;2022-09-17T09:20:56;98677.20;;;13.10
69590;BMP180;56792;50.644;17.984;2022-09-17T09:23:38;98676.40;;;13.12
69590;BMP180;56792;50.644;17.984;2022-09-17T09:26:17;98679.60;;;13.20
69590;BMP180;56792;50.644;17.984;2022-09-17T09:29:07;98670.20;;;13.30
69590;BMP180;56792;50.644;17.984;2022-09-17T09:32:02;98672.20;;;13.36
69590;BMP180;56792;50.644;17.984;2022-09-17T09:34:38;98677.60;;;13.50
69590;BMP180;56792;50.644;17.984;2022-09-17T09:37:19;98675.00;;;13.70
69590;BMP180;56792;50.644;17.984;2022-09-17T09:39:52;98674.40;;;13.72
69590;BMP180;56792;50.644;17.984;2022-09-17T09:42:31;98669.60;;;13.84
69590;BMP180;56792;50.644;17.984;2022-09-17T09:45:11;98678.20;;;13.90
69590;BMP180;56792;50.644;17.984;2022-09-17T09:47:55;98689.20;;;13.90
69590;BMP180;56792;50.644;17.984;2022-09-17T09:50:42;98691.00;;;13.80
69590;BMP180;56792;50.644;17.984;2022-09-17T09:53:27;98686.20;;;13.80
69590;BMP180;56792;50.644;17.984;2022-09-17T09:56:27;98676.20;;;13.80
69590;BMP180;56792;50.644;17.984;2022-09-17T09:59:02;98681.60;;;13.80
69590;BMP180;56792;50.644;17.984;2022-09-17T10:01:39;98679.80;;;13.72
69590;BMP180;56792;50.644;17.984;2022-09-17T10:04:19;98680.20;;;13.80
69590;BMP180;56792;50.644;17.984;2022-09-17T10:06:52;98671.20;;;13.88
69590;BMP180;56792;50.644;17.984;2022-09-17T10:09:23;98672.20;;;13.90
69590;BMP180;56792;50.644;17.984;2022-09-17T10:12:18;98676.40;;;13.90
69590;BMP180;56792;50.644;17.984;2022-09-17T10:14:49;98667.40;;;14.00
69590;BMP180;56792;50.644;17.984;2022-09-17T10:17:21;98662.60;;;14.10
69590;BMP180;56792;50.644;17.984;2022-09-17T10:20:14;98661.80;;;14.20
69590;BMP180;56792;50.644;17.984;2022-09-17T10:22:46;98668.60;;;14.30
69590;BMP180;56792;50.644;17.984;2022-09-17T10:25:30;98676.20;;;14.40
69590;BMP180;56792;50.644;17.984;2022-09-17T10:28:04;98674.20;;;14.52
69590;BMP180;56792;50.644;17.984;2022-09-17T10:30:58;98681.20;;;14.78
69590;BMP180;56792;50.644;17.984;2022-09-17T10:33:30;98686.20;;;14.90
69590;BMP180;56792;50.644;17.984;2022-09-17T10:36:06;98686.40;;;14.98
69590;BMP180;56792;50.644;17.984;2022-09-17T10:38:39;98690.40;;;15.10
69590;BMP180;56792;50.644;17.984;2022-09-17T10:41:18;98689.80;;;15.28
69590;BMP180;56792;50.644;17.984;2022-09-17T10:43:50;98691.80;;;15.40
69590;BMP180;56792;50.644;17.984;2022-09-17T10:46:28;98696.60;;;15.58
69590;BMP180;56792;50.644;17.984;2022-09-17T10:49:11;98693.60;;;15.60
69590;BMP180;56792;50.644;17.984;2022-09-17T10:51:46;98688.60;;;15.60
69590;BMP180;56792;50.644;17.984;2022-09-17T10:57:42;98686.60;;;15.90
69590;BMP180;56792;50.644;17.984;2022-09-17T11:00:20;98691.00;;;16.00
69590;BMP180;56792;50.644;17.984;2022-09-17T11:03:52;98683.00;;;16.10
69590;BMP180;56792;50.644;17.984;2022-09-17T11:06:49;98676.40;;;16.20
69590;BMP180;56792;50.644;17.984;2022-09-17T11:09:32;98679.20;;;16.30
69590;BMP180;56792;50.644;17.984;2022-09-17T11:12:25;98675.60;;;16.60
69590;BMP180;56792;50.644;17.984;2022-09-17T11:15:05;98677.40;;;16.90
69590;BMP180;56792;50.644;17.984;2022-09-17T11:21:22;98674.60;;;17.60
69590;BMP180;56792;50.644;17.984;2022-09-17T11:27:22;98681.20;;;17.88
69590;BMP180;56792;50.644;17.984;2022-09-17T11:30:09;98682.00;;;18.10
69590;BMP180;56792;50.644;17.984;2022-09-17T11:33:21;98674.20;;;18.50
69590;BMP180;56792;50.644;17.984;2022-09-17T11:35:58;98673.20;;;19.26
69590;BMP180;56792;50.644;17.984;2022-09-17T11:38:38;98674.40;;;20.00
69590;BMP180;56792;50.644;17.984;2022-09-17T11:41:13;98670.00;;;19.72
69590;BMP180;56792;50.644;17.984;2022-09-17T11:44:02;98663.00;;;19.70
69590;BMP180;56792;50.644;17.984;2022-09-17T11:46:39;98668.20;;;19.60
69590;BMP180;56792;50.644;17.984;2022-09-17T11:49:19;98671.40;;;19.10
69590;BMP180;56792;50.644;17.984;2022-09-17T11:51:56;98670.00;;;18.78
69590;BMP180;56792;50.644;17.984;2022-09-17T11:54:32;98672.40;;;18.40
69590;BMP180;56792;50.644;17.984;2022-09-17T11:57:15;98672.20;;;18.10
69590;BMP180;56792;50.644;17.984;2022-09-17T11:59:51;98667.80;;;17.70
69590;BMP180;56792;50.644;17.984;2022-09-17T12:02:33;98661.60;;;17.46
69590;BMP180;56792;50.644;17.984;2022-09-17T12:05:15;98665.00;;;17.26
69590;BMP180;56792;50.644;17.984;2022-09-17T12:07:55;98664.20;;;17.00
69590;BMP180;56792;50.644;17.984;2022-09-17T12:10:43;98667.80;;;16.90
69590;BMP180;56792;50.644;17.984;2022-09-17T12:13:29;98663.80;;;16.70
69590;BMP180;56792;50.644;17.984;2022-09-17T12:16:16;98668.80;;;16.60
69590;BMP180;56792;50.644;17.984;2022-09-17T12:18:57;98669.60;;;16.40
69590;BMP180;56792;50.644;17.984;2022-09-17T12:21:35;98660.20;;;16.30
69590;BMP180;56792;50.644;17.984;2022-09-17T12:24:16;98661.00;;;16.14
69590;BMP180;56792;50.644;17.984;2022-09-17T12:27:04;98658.20;;;15.90
69590;BMP180;56792;50.644;17.984;2022-09-17T12:30:07;98659.60;;;15.80
69590;BMP180;56792;50.644;17.984;2022-09-17T12:32:57;98659.60;;;15.80
69590;BMP180;56792;50.644;17.984;2022-09-17T12:36:08;98656.20;;;15.96
69590;BMP180;56792;50.644;17.984;2022-09-17T12:39:26;98652.20;;;16.06
69590;BMP180;56792;50.644;17.984;2022-09-17T12:42:16;98654.60;;;16.00
69590;BMP180;56792;50.644;17.984;2022-09-17T12:45:12;98659.00;;;16.00
69590;BMP180;56792;50.644;17.984;2022-09-17T12:48:17;98655.20;;;16.00
69590;BMP180;56792;50.644;17.984;2022-09-17T12:51:06;98653.60;;;16.10
69590;BMP180;56792;50.644;17.984;2022-09-17T12:53:50;98648.40;;;16.00
69590;BMP180;56792;50.644;17.984;2022-09-17T12:56:43;98638.20;;;15.90
69590;BMP180;56792;50.644;17.984;2022-09-17T12:59:18;98631.00;;;15.80
69590;BMP180;56792;50.644;17.984;2022-09-17T13:01:54;98627.20;;;15.80
69590;BMP180;56792;50.644;17.984;2022-09-17T13:04:51;98622.80;;;15.70
69590;BMP180;56792;50.644;17.984;2022-09-17T13:07:55;98621.40;;;15.80
69590;BMP180;56792;50.644;17.984;2022-09-17T13:10:52;98615.80;;;15.90
69590;BMP180;56792;50.644;17.984;2022-09-17T13:13:39;98616.40;;;16.04
69590;BMP180;56792;50.644;17.984;2022-09-17T13:16:17;98620.00;;;16.16
69590;BMP180;56792;50.644;17.984;2022-09-17T13:18:57;98620.20;;;16.10
69590;BMP180;56792;50.644;17.984;2022-09-17T13:21:38;98622.80;;;16.00
69590;BMP180;56792;50.644;17.984;2022-09-17T13:24:18;98619.40;;;15.90
69590;BMP180;56792;50.644;17.984;2022-09-17T13:26:49;98615.60;;;15.80
69590;BMP180;56792;50.644;17.984;2022-09-17T13:30:01;98617.00;;;15.90
69590;BMP180;56792;50.644;17.984;2022-09-17T13:32:50;98613.40;;;15.70
69590;BMP180;56792;50.644;17.984;2022-09-17T13:35:51;98615.60;;;15.70
69590;BMP180;56792;50.644;17.984;2022-09-17T13:38:21;98619.60;;;16.10
69590;BMP180;56792;50.644;17.984;2022-09-17T13:40:52;98616.60;;;16.24
69590;BMP180;56792;50.644;17.984;2022-09-17T13:43:46;98622.80;;;16.80
69590;BMP180;56792;50.644;17.984;2022-09-17T13:46:23;98626.20;;;17.10
69590;BMP180;56792;50.644;17.984;2022-09-17T13:48:59;98625.40;;;17.20
69590;BMP180;56792;50.644;17.984;2022-09-17T13:51:51;98627.20;;;17.04
69590;BMP180;56792;50.644;17.984;2022-09-17T13:54:36;98619.20;;;16.80
69590;BMP180;56792;50.644;17.984;2022-09-17T13:57:13;98612.60;;;16.70
69590;BMP180;56792;50.644;17.984;2022-09-17T13:59:59;98603.80;;;16.58
69590;BMP180;56792;50.644;17.984;2022-09-17T14:02:35;98593.60;;;16.50
69590;BMP180;56792;50.644;17.984;2022-09-17T14:05:32;98589.00;;;16.40
69590;BMP180;56792;50.644;17.984;2022-09-17T14:08:34;98583.80;;;16.20
69590;BMP180;56792;50.644;17.984;2022-09-17T14:11:39;98580.80;;;16.30
69590;BMP180;56792;50.644;17.984;2022-09-17T14:14:46;98581.20;;;16.40
69590;BMP180;56792;50.644;17.984;2022-09-17T14:17:50;98567.40;;;16.60
69590;BMP180;56792;50.644;17.984;2022-09-17T14:20:22;98559.20;;;16.92
69590;BMP180;56792;50.644;17.984;2022-09-17T14:22:58;98558.80;;;16.90
69590;BMP180;56792;50.644;17.984;2022-09-17T14:25:41;98563.00;;;16.70
69590;BMP180;56792;50.644;17.984;2022-09-17T14:28:21;98575.40;;;16.40
69590;BMP180;56792;50.644;17.984;2022-09-17T14:30:57;98591.60;;;16.10
69590;BMP180;56792;50.644;17.984;2022-09-17T14:33:31;98607.20;;;15.90
69590;BMP180;56792;50.644;17.984;2022-09-17T14:36:13;98611.80;;;15.70
69590;BMP180;56792;50.644;17.984;2022-09-17T14:38:48;98613.40;;;15.60
69590;BMP180;56792;50.644;17.984;2022-09-17T14:41:24;98614.80;;;15.50
69590;BMP180;56792;50.644;17.984;2022-09-17T14:43:58;98617.60;;;15.30
69590;BMP180;56792;50.644;17.984;2022-09-17T14:46:33;98624.20;;;15.20
69590;BMP180;56792;50.644;17.984;2022-09-17T14:49:19;98621.40;;;15.10
69590;BMP180;56792;50.644;17.984;2022-09-17T14:51:50;98620.20;;;15.00
69590;BMP180;56792;50.644;17.984;2022-09-17T14:54:24;98614.60;;;14.90
69590;BMP180;56792;50.644;17.984;2022-09-17T14:57:00;98615.80;;;14.80
69590;BMP180;56792;50.644;17.984;2022-09-17T14:59:47;98619.80;;;14.56
69590;BMP180;56792;50.644;17.984;2022-09-17T15:02:34;98623.40;;;14.36
69590;BMP180;56792;50.644;17.984;2022-09-17T15:05:20;98630.40;;;14.20
69590;BMP180;56792;50.644;17.984;2022-09-17T15:07:51;98620.40;;;14.10
69590;BMP180;56792;50.644;17.984;2022-09-17T15:10:23;98614.20;;;14.10
69590;BMP180;56792;50.644;17.984;2022-09-17T15:12:53;98608.60;;;14.06
69590;BMP180;56792;50.644;17.984;2022-09-17T15:15:28;98603.80;;;13.94